Archival Weather

Republic

Farmingdale, New York (KFRG)

Report from: Saturday, February 24, 2024 2:53 PM EST
Current time: Friday, June 21, 2024 2:42 AM EDT

Current weather – Weather history – Daily summaries
Weather forecast

Temperature6.7°C (44.1°F)
Wind chill3.6°C (38.5°F)
Dew point-5.6°C (21.9°F)
Winds 9 kts (4.6 m/s, 10.4 mph) North (350°)
Wind gusts 18 kts (9.3 m/s, 20.7 mph)
Visibility10 mi. (16.1 km)
Clouds Sky clear
Altimeter29.70 in.Hg (1006 mB)
Relative humidity41 %
Density altitude-676 ft. (-206 m)
Sea-level pressure100.6 kPa (1006 mB, 29.70 in.Hg)
Remarks Automated weather observing station without precipitation discriminator
Flight conditions Visual Meteorological Conditions
Raw dataKFRG 241953Z 35009G18KT 10SM CLR 07/M06 A2970 RMK AO1 SLP057 T00671056
An error has occurred. This application may no longer respond until reloaded. Reload 🗙